sensor_id;sensor_type;location;lat;lon;timestamp;pressure;altitude;pressure_sealevel;temperature;humidity
60642;BME280;46837;52.446;-1.930;2023-08-08T00:00:09;100310.58;;;13.73;66.56
60642;BME280;46837;52.446;-1.930;2023-08-08T00:01:09;100307.64;;;13.77;66.47
60642;BME280;46837;52.446;-1.930;2023-08-08T00:02:09;100307.36;;;13.77;66.43
60642;BME280;46837;52.446;-1.930;2023-08-08T00:03:09;100308.66;;;13.80;66.35
60642;BME280;46837;52.446;-1.930;2023-08-08T00:04:09;100302.89;;;13.82;66.35
60642;BME280;46837;52.446;-1.930;2023-08-08T00:05:09;100301.46;;;13.82;66.39
60642;BME280;46837;52.446;-1.930;2023-08-08T00:06:09;100304.21;;;13.80;66.56
60642;BME280;46837;52.446;-1.930;2023-08-08T00:07:09;100302.70;;;13.84;66.53
60642;BME280;46837;52.446;-1.930;2023-08-08T00:08:09;100304.94;;;13.86;66.26
60642;BME280;46837;52.446;-1.930;2023-08-08T00:09:09;100303.11;;;13.87;66.22
60642;BME280;46837;52.446;-1.930;2023-08-08T00:10:09;100304.04;;;13.82;66.30
60642;BME280;46837;52.446;-1.930;2023-08-08T00:11:09;100305.74;;;13.82;66.30
60642;BME280;46837;52.446;-1.930;2023-08-08T00:12:09;100305.14;;;13.81;66.28
60642;BME280;46837;52.446;-1.930;2023-08-08T00:13:09;100306.18;;;13.80;66.30
60642;BME280;46837;52.446;-1.930;2023-08-08T00:14:09;100306.59;;;13.78;66.47
60642;BME280;46837;52.446;-1.930;2023-08-08T00:15:09;100302.56;;;13.75;66.61
60642;BME280;46837;52.446;-1.930;2023-08-08T00:16:09;100304.15;;;13.74;66.66
60642;BME280;46837;52.446;-1.930;2023-08-08T00:17:09;100301.90;;;13.75;66.55
60642;BME280;46837;52.446;-1.930;2023-08-08T00:18:09;100299.43;;;13.74;66.61
60642;BME280;46837;52.446;-1.930;2023-08-08T00:19:09;100296.60;;;13.72;66.68
60642;BME280;46837;52.446;-1.930;2023-08-08T00:20:09;100293.36;;;13.69;66.76
60642;BME280;46837;52.446;-1.930;2023-08-08T00:21:09;100291.36;;;13.65;66.93
60642;BME280;46837;52.446;-1.930;2023-08-08T00:22:09;100291.33;;;13.63;67.15
60642;BME280;46837;52.446;-1.930;2023-08-08T00:23:09;100289.68;;;13.63;67.10
60642;BME280;46837;52.446;-1.930;2023-08-08T00:24:09;100286.63;;;13.59;67.31
60642;BME280;46837;52.446;-1.930;2023-08-08T00:25:09;100283.72;;;13.59;67.42
60642;BME280;46837;52.446;-1.930;2023-08-08T00:26:09;100280.21;;;13.60;67.33
60642;BME280;46837;52.446;-1.930;2023-08-08T00:27:09;100277.84;;;13.61;67.25
60642;BME280;46837;52.446;-1.930;2023-08-08T00:28:09;100279.93;;;13.61;67.26
60642;BME280;46837;52.446;-1.930;2023-08-08T00:29:09;100279.57;;;13.64;67.27
60642;BME280;46837;52.446;-1.930;2023-08-08T00:30:10;100280.07;;;13.63;67.28
60642;BME280;46837;52.446;-1.930;2023-08-08T00:31:09;100275.87;;;13.60;67.40
60642;BME280;46837;52.446;-1.930;2023-08-08T00:32:09;100274.14;;;13.63;67.31
60642;BME280;46837;52.446;-1.930;2023-08-08T00:33:09;100273.62;;;13.67;67.23
60642;BME280;46837;52.446;-1.930;2023-08-08T00:34:09;100274.97;;;13.69;67.21
60642;BME280;46837;52.446;-1.930;2023-08-08T00:35:09;100271.18;;;13.69;67.20
60642;BME280;46837;52.446;-1.930;2023-08-08T00:36:09;100267.90;;;13.69;67.19
60642;BME280;46837;52.446;-1.930;2023-08-08T00:37:09;100268.84;;;13.66;67.31
60642;BME280;46837;52.446;-1.930;2023-08-08T00:38:09;100264.69;;;13.65;67.39
60642;BME280;46837;52.446;-1.930;2023-08-08T00:39:09;100266.31;;;13.61;67.60
60642;BME280;46837;52.446;-1.930;2023-08-08T00:40:09;100267.00;;;13.64;67.53
60642;BME280;46837;52.446;-1.930;2023-08-08T00:41:09;100265.96;;;13.65;67.52
60642;BME280;46837;52.446;-1.930;2023-08-08T00:42:09;100263.24;;;13.62;67.60
60642;BME280;46837;52.446;-1.930;2023-08-08T00:43:09;100263.19;;;13.60;67.68
60642;BME280;46837;52.446;-1.930;2023-08-08T00:44:09;100259.31;;;13.57;67.76
60642;BME280;46837;52.446;-1.930;2023-08-08T00:45:09;100260.09;;;13.56;67.83
60642;BME280;46837;52.446;-1.930;2023-08-08T00:46:09;100258.33;;;13.56;67.82
60642;BME280;46837;52.446;-1.930;2023-08-08T00:47:09;100255.25;;;13.56;67.81
60642;BME280;46837;52.446;-1.930;2023-08-08T00:48:09;100253.82;;;13.51;67.97
60642;BME280;46837;52.446;-1.930;2023-08-08T00:49:09;100251.85;;;13.50;68.05
60642;BME280;46837;52.446;-1.930;2023-08-08T00:50:09;100249.65;;;13.50;68.06
60642;BME280;46837;52.446;-1.930;2023-08-08T00:51:09;100248.72;;;13.49;68.03
60642;BME280;46837;52.446;-1.930;2023-08-08T00:52:09;100249.19;;;13.52;67.94
60642;BME280;46837;52.446;-1.930;2023-08-08T00:53:09;100249.74;;;13.52;67.96
60642;BME280;46837;52.446;-1.930;2023-08-08T00:54:09;100254.70;;;13.51;68.09
60642;BME280;46837;52.446;-1.930;2023-08-08T00:55:09;100250.70;;;13.49;68.09
60642;BME280;46837;52.446;-1.930;2023-08-08T00:56:09;100248.91;;;13.47;68.17
60642;BME280;46837;52.446;-1.930;2023-08-08T00:57:09;100246.77;;;13.47;68.21
60642;BME280;46837;52.446;-1.930;2023-08-08T00:58:09;100244.24;;;13.48;68.16
60642;BME280;46837;52.446;-1.930;2023-08-08T00:59:09;100246.82;;;13.46;68.20
60642;BME280;46837;52.446;-1.930;2023-08-08T01:00:09;100250.39;;;13.44;68.33
60642;BME280;46837;52.446;-1.930;2023-08-08T01:01:09;100247.78;;;13.44;68.32
60642;BME280;46837;52.446;-1.930;2023-08-08T01:02:09;100247.64;;;13.47;68.20
60642;BME280;46837;52.446;-1.930;2023-08-08T01:03:09;100251.43;;;13.46;68.26
60642;BME280;46837;52.446;-1.930;2023-08-08T01:04:09;100249.52;;;13.45;68.32
60642;BME280;46837;52.446;-1.930;2023-08-08T01:05:09;100250.75;;;13.42;68.49
60642;BME280;46837;52.446;-1.930;2023-08-08T01:06:16;100251.36;;;13.41;68.57
60642;BME280;46837;52.446;-1.930;2023-08-08T01:08:09;100251.79;;;13.41;68.59
60642;BME280;46837;52.446;-1.930;2023-08-08T01:09:16;100252.91;;;13.39;68.72
60642;BME280;46837;52.446;-1.930;2023-08-08T01:10:17;100249.34;;;13.41;68.70
60642;BME280;46837;52.446;-1.930;2023-08-08T01:11:09;100247.46;;;13.42;68.81
60642;BME280;46837;52.446;-1.930;2023-08-08T01:12:09;100245.61;;;13.40;68.77
60642;BME280;46837;52.446;-1.930;2023-08-08T01:13:15;100241.36;;;13.35;68.96
60642;BME280;46837;52.446;-1.930;2023-08-08T01:14:09;100240.86;;;13.36;68.99
60642;BME280;46837;52.446;-1.930;2023-08-08T01:15:09;100236.47;;;13.35;69.05
60642;BME280;46837;52.446;-1.930;2023-08-08T01:16:09;100236.66;;;13.33;69.24
60642;BME280;46837;52.446;-1.930;2023-08-08T01:17:10;100235.59;;;13.35;69.23
60642;BME280;46837;52.446;-1.930;2023-08-08T01:18:09;100237.62;;;13.35;69.18
60642;BME280;46837;52.446;-1.930;2023-08-08T01:19:09;100233.86;;;13.33;69.23
60642;BME280;46837;52.446;-1.930;2023-08-08T01:20:09;100233.43;;;13.32;69.29
60642;BME280;46837;52.446;-1.930;2023-08-08T01:21:09;100230.76;;;13.30;69.37
60642;BME280;46837;52.446;-1.930;2023-08-08T01:22:14;100229.91;;;13.33;69.28
60642;BME280;46837;52.446;-1.930;2023-08-08T01:25:09;100225.36;;;13.33;69.29
60642;BME280;46837;52.446;-1.930;2023-08-08T01:26:09;100224.04;;;13.33;69.28
60642;BME280;46837;52.446;-1.930;2023-08-08T01:27:09;100224.91;;;13.33;69.30
60642;BME280;46837;52.446;-1.930;2023-08-08T01:28:09;100220.31;;;13.33;69.37
60642;BME280;46837;52.446;-1.930;2023-08-08T01:29:09;100217.18;;;13.31;69.42
60642;BME280;46837;52.446;-1.930;2023-08-08T01:30:09;100218.63;;;13.30;69.53
60642;BME280;46837;52.446;-1.930;2023-08-08T01:31:09;100216.11;;;13.28;69.54
60642;BME280;46837;52.446;-1.930;2023-08-08T01:32:09;100214.35;;;13.27;69.67
60642;BME280;46837;52.446;-1.930;2023-08-08T01:33:09;100212.38;;;13.28;69.62
60642;BME280;46837;52.446;-1.930;2023-08-08T01:34:09;100213.78;;;13.31;69.54
60642;BME280;46837;52.446;-1.930;2023-08-08T01:35:09;100212.87;;;13.30;69.61
60642;BME280;46837;52.446;-1.930;2023-08-08T01:36:16;100213.50;;;13.32;69.54
60642;BME280;46837;52.446;-1.930;2023-08-08T01:37:13;100210.38;;;13.32;69.58
60642;BME280;46837;52.446;-1.930;2023-08-08T01:38:17;100213.99;;;13.33;69.55
60642;BME280;46837;52.446;-1.930;2023-08-08T01:39:11;100214.82;;;13.32;69.60
60642;BME280;46837;52.446;-1.930;2023-08-08T01:40:09;100215.15;;;13.32;69.70
60642;BME280;46837;52.446;-1.930;2023-08-08T01:41:09;100209.39;;;13.32;69.69
60642;BME280;46837;52.446;-1.930;2023-08-08T01:42:09;100204.12;;;13.33;69.64
60642;BME280;46837;52.446;-1.930;2023-08-08T01:43:09;100208.54;;;13.36;69.52
60642;BME280;46837;52.446;-1.930;2023-08-08T01:44:09;100206.45;;;13.37;69.53
60642;BME280;46837;52.446;-1.930;2023-08-08T01:45:09;100205.77;;;13.32;69.75
60642;BME280;46837;52.446;-1.930;2023-08-08T01:46:09;100206.70;;;13.31;69.81
60642;BME280;46837;52.446;-1.930;2023-08-08T01:47:09;100213.55;;;13.33;69.75
60642;BME280;46837;52.446;-1.930;2023-08-08T01:48:09;100211.09;;;13.31;69.75
60642;BME280;46837;52.446;-1.930;2023-08-08T01:49:09;100208.73;;;13.32;69.78
60642;BME280;46837;52.446;-1.930;2023-08-08T01:50:09;100204.45;;;13.32;69.86
60642;BME280;46837;52.446;-1.930;2023-08-08T01:51:09;100201.59;;;13.31;69.91
60642;BME280;46837;52.446;-1.930;2023-08-08T01:52:09;100201.10;;;13.31;69.98
60642;BME280;46837;52.446;-1.930;2023-08-08T01:53:09;100203.82;;;13.28;70.18
60642;BME280;46837;52.446;-1.930;2023-08-08T01:54:09;100196.57;;;13.23;70.40
60642;BME280;46837;52.446;-1.930;2023-08-08T01:55:09;100201.14;;;13.23;70.46
60642;BME280;46837;52.446;-1.930;2023-08-08T01:56:09;100198.45;;;13.23;70.46
60642;BME280;46837;52.446;-1.930;2023-08-08T01:57:09;100197.75;;;13.26;70.36
60642;BME280;46837;52.446;-1.930;2023-08-08T01:58:09;100196.16;;;13.25;70.50
60642;BME280;46837;52.446;-1.930;2023-08-08T01:59:09;100198.85;;;13.25;70.56
60642;BME280;46837;52.446;-1.930;2023-08-08T02:00:09;100197.59;;;13.25;70.65
60642;BME280;46837;52.446;-1.930;2023-08-08T02:01:09;100195.19;;;13.20;70.84
60642;BME280;46837;52.446;-1.930;2023-08-08T02:02:09;100196.48;;;13.21;70.97
60642;BME280;46837;52.446;-1.930;2023-08-08T02:03:09;100197.91;;;13.24;70.88
60642;BME280;46837;52.446;-1.930;2023-08-08T02:04:09;100200.00;;;13.26;70.89
60642;BME280;46837;52.446;-1.930;2023-08-08T02:05:09;100198.90;;;13.27;70.98
60642;BME280;46837;52.446;-1.930;2023-08-08T02:06:09;100198.46;;;13.25;71.12
60642;BME280;46837;52.446;-1.930;2023-08-08T02:07:09;100196.48;;;13.26;71.19
60642;BME280;46837;52.446;-1.930;2023-08-08T02:08:09;100194.49;;;13.27;71.17
60642;BME280;46837;52.446;-1.930;2023-08-08T02:09:09;100190.42;;;13.30;71.21
60642;BME280;46837;52.446;-1.930;2023-08-08T02:10:09;100184.58;;;13.31;71.32
60642;BME280;46837;52.446;-1.930;2023-08-08T02:11:09;100185.07;;;13.31;71.32
60642;BME280;46837;52.446;-1.930;2023-08-08T02:12:09;100183.24;;;13.34;71.19
60642;BME280;46837;52.446;-1.930;2023-08-08T02:13:09;100185.27;;;13.34;71.24
60642;BME280;46837;52.446;-1.930;2023-08-08T02:14:09;100184.00;;;13.36;71.26
60642;BME280;46837;52.446;-1.930;2023-08-08T02:15:09;100186.05;;;13.40;71.13
60642;BME280;46837;52.446;-1.930;2023-08-08T02:16:09;100190.36;;;13.43;71.04
60642;BME280;46837;52.446;-1.930;2023-08-08T02:17:09;100190.04;;;13.42;71.08
60642;BME280;46837;52.446;-1.930;2023-08-08T02:18:09;100189.54;;;13.44;71.05
60642;BME280;46837;52.446;-1.930;2023-08-08T02:19:09;100188.45;;;13.42;71.16
60642;BME280;46837;52.446;-1.930;2023-08-08T02:20:09;100189.18;;;13.45;71.05
60642;BME280;46837;52.446;-1.930;2023-08-08T02:21:09;100191.65;;;13.46;71.07
60642;BME280;46837;52.446;-1.930;2023-08-08T02:22:09;100188.93;;;13.50;70.99
60642;BME280;46837;52.446;-1.930;2023-08-08T02:23:09;100190.39;;;13.52;71.01
60642;BME280;46837;52.446;-1.930;2023-08-08T02:24:09;100188.69;;;13.51;70.94
60642;BME280;46837;52.446;-1.930;2023-08-08T02:25:09;100192.50;;;13.49;71.10
60642;BME280;46837;52.446;-1.930;2023-08-08T02:26:09;100192.85;;;13.54;71.01
60642;BME280;46837;52.446;-1.930;2023-08-08T02:27:09;100193.84;;;13.54;70.95
60642;BME280;46837;52.446;-1.930;2023-08-08T02:28:09;100195.49;;;13.54;71.01
60642;BME280;46837;52.446;-1.930;2023-08-08T02:29:09;100192.44;;;13.58;70.91
60642;BME280;46837;52.446;-1.930;2023-08-08T02:30:09;100192.08;;;13.59;70.92
60642;BME280;46837;52.446;-1.930;2023-08-08T02:31:09;100192.08;;;13.60;70.86
60642;BME280;46837;52.446;-1.930;2023-08-08T02:32:09;100193.75;;;13.58;71.05
60642;BME280;46837;52.446;-1.930;2023-08-08T02:33:09;100193.95;;;13.59;71.04
60642;BME280;46837;52.446;-1.930;2023-08-08T02:34:09;100193.45;;;13.61;70.92
60642;BME280;46837;52.446;-1.930;2023-08-08T02:35:09;100191.20;;;13.60;70.99
60642;BME280;46837;52.446;-1.930;2023-08-08T02:36:09;100186.28;;;13.64;70.87
60642;BME280;46837;52.446;-1.930;2023-08-08T02:37:09;100187.48;;;13.65;70.82
60642;BME280;46837;52.446;-1.930;2023-08-08T02:38:09;100190.56;;;13.65;70.85
60642;BME280;46837;52.446;-1.930;2023-08-08T02:39:09;100189.33;;;13.60;71.08
60642;BME280;46837;52.446;-1.930;2023-08-08T02:40:09;100187.58;;;13.59;71.08
60642;BME280;46837;52.446;-1.930;2023-08-08T02:41:09;100182.66;;;13.58;71.18
60642;BME280;46837;52.446;-1.930;2023-08-08T02:42:09;100180.16;;;13.60;71.11
60642;BME280;46837;52.446;-1.930;2023-08-08T02:43:09;100180.47;;;13.57;71.08
60642;BME280;46837;52.446;-1.930;2023-08-08T02:44:09;100182.28;;;13.57;71.18
60642;BME280;46837;52.446;-1.930;2023-08-08T02:45:09;100181.10;;;13.60;71.05
60642;BME280;46837;52.446;-1.930;2023-08-08T02:46:09;100178.13;;;13.61;70.93
60642;BME280;46837;52.446;-1.930;2023-08-08T02:47:09;100179.79;;;13.54;71.19
60642;BME280;46837;52.446;-1.930;2023-08-08T02:48:09;100180.78;;;13.52;71.29
60642;BME280;46837;52.446;-1.930;2023-08-08T02:49:09;100179.40;;;13.54;71.28
60642;BME280;46837;52.446;-1.930;2023-08-08T02:50:09;100177.89;;;13.50;71.31
60642;BME280;46837;52.446;-1.930;2023-08-08T02:51:09;100179.81;;;13.51;71.26
60642;BME280;46837;52.446;-1.930;2023-08-08T02:52:09;100184.59;;;13.51;71.22
60642;BME280;46837;52.446;-1.930;2023-08-08T02:53:09;100190.17;;;13.47;71.36
60642;BME280;46837;52.446;-1.930;2023-08-08T02:54:09;100184.68;;;13.46;71.38
60642;BME280;46837;52.446;-1.930;2023-08-08T02:55:09;100188.66;;;13.43;71.49
60642;BME280;46837;52.446;-1.930;2023-08-08T02:56:09;100184.11;;;13.42;71.58
60642;BME280;46837;52.446;-1.930;2023-08-08T02:57:09;100186.96;;;13.43;71.57
60642;BME280;46837;52.446;-1.930;2023-08-08T02:58:09;100187.34;;;13.43;71.52
60642;BME280;46837;52.446;-1.930;2023-08-08T02:59:09;100184.82;;;13.36;71.83
60642;BME280;46837;52.446;-1.930;2023-08-08T03:00:09;100183.95;;;13.36;71.93
60642;BME280;46837;52.446;-1.930;2023-08-08T03:01:09;100182.96;;;13.36;71.95
60642;BME280;46837;52.446;-1.930;2023-08-08T03:02:09;100187.16;;;13.37;71.90
60642;BME280;46837;52.446;-1.930;2023-08-08T03:03:09;100185.40;;;13.38;71.88
60642;BME280;46837;52.446;-1.930;2023-08-08T03:04:09;100187.18;;;13.41;71.80
60642;BME280;46837;52.446;-1.930;2023-08-08T03:05:09;100183.48;;;13.39;71.88
60642;BME280;46837;52.446;-1.930;2023-08-08T03:06:09;100184.05;;;13.41;71.94
60642;BME280;46837;52.446;-1.930;2023-08-08T03:07:09;100184.60;;;13.43;71.90
60642;BME280;46837;52.446;-1.930;2023-08-08T03:08:09;100179.75;;;13.44;71.83
60642;BME280;46837;52.446;-1.930;2023-08-08T03:09:09;100184.63;;;13.41;72.13
60642;BME280;46837;52.446;-1.930;2023-08-08T03:10:09;100179.45;;;13.41;72.18
60642;BME280;46837;52.446;-1.930;2023-08-08T03:11:09;100183.50;;;13.43;72.19
60642;BME280;46837;52.446;-1.930;2023-08-08T03:12:09;100179.58;;;13.46;72.14
60642;BME280;46837;52.446;-1.930;2023-08-08T03:13:09;100184.19;;;13.46;72.23
60642;BME280;46837;52.446;-1.930;2023-08-08T03:14:09;100183.23;;;13.43;72.41
60642;BME280;46837;52.446;-1.930;2023-08-08T03:15:09;100186.66;;;13.46;72.39
60642;BME280;46837;52.446;-1.930;2023-08-08T03:16:09;100181.33;;;13.47;72.45
60642;BME280;46837;52.446;-1.930;2023-08-08T03:17:09;100180.53;;;13.51;72.38
60642;BME280;46837;52.446;-1.930;2023-08-08T03:18:09;100180.23;;;13.46;72.57
60642;BME280;46837;52.446;-1.930;2023-08-08T03:19:09;100179.77;;;13.50;72.49
60642;BME280;46837;52.446;-1.930;2023-08-08T03:20:09;100180.75;;;13.50;72.46
60642;BME280;46837;52.446;-1.930;2023-08-08T03:21:09;100181.98;;;13.54;72.33
60642;BME280;46837;52.446;-1.930;2023-08-08T03:22:09;100181.41;;;13.56;72.30
60642;BME280;46837;52.446;-1.930;2023-08-08T03:23:09;100181.27;;;13.54;72.40
60642;BME280;46837;52.446;-1.930;2023-08-08T03:24:09;100179.73;;;13.54;72.42
60642;BME280;46837;52.446;-1.930;2023-08-08T03:25:09;100181.52;;;13.51;72.53
60642;BME280;46837;52.446;-1.930;2023-08-08T03:26:09;100183.75;;;13.51;72.50
60642;BME280;46837;52.446;-1.930;2023-08-08T03:27:09;100184.40;;;13.52;72.45
60642;BME280;46837;52.446;-1.930;2023-08-08T03:28:09;100184.19;;;13.46;72.65
60642;BME280;46837;52.446;-1.930;2023-08-08T03:29:09;100181.80;;;13.48;72.62
60642;BME280;46837;52.446;-1.930;2023-08-08T03:30:09;100183.61;;;13.49;72.53
60642;BME280;46837;52.446;-1.930;2023-08-08T03:31:09;100181.30;;;13.48;72.53
60642;BME280;46837;52.446;-1.930;2023-08-08T03:32:09;100176.83;;;13.46;72.58
60642;BME280;46837;52.446;-1.930;2023-08-08T03:33:09;100177.96;;;13.44;72.58
60642;BME280;46837;52.446;-1.930;2023-08-08T03:34:09;100179.38;;;13.44;72.69
60642;BME280;46837;52.446;-1.930;2023-08-08T03:35:09;100179.44;;;13.44;72.65
60642;BME280;46837;52.446;-1.930;2023-08-08T03:36:09;100180.05;;;13.41;72.70
60642;BME280;46837;52.446;-1.930;2023-08-08T03:37:09;100179.61;;;13.41;72.72
60642;BME280;46837;52.446;-1.930;2023-08-08T03:38:09;100182.43;;;13.40;72.73
60642;BME280;46837;52.446;-1.930;2023-08-08T03:39:10;100180.96;;;13.38;72.92
60642;BME280;46837;52.446;-1.930;2023-08-08T03:40:09;100181.06;;;13.33;73.04
60642;BME280;46837;52.446;-1.930;2023-08-08T03:41:09;100183.10;;;13.32;73.14
60642;BME280;46837;52.446;-1.930;2023-08-08T03:42:09;100187.41;;;13.34;72.98
60642;BME280;46837;52.446;-1.930;2023-08-08T03:43:09;100188.47;;;13.33;73.02
60642;BME280;46837;52.446;-1.930;2023-08-08T03:44:09;100186.66;;;13.32;73.09
60642;BME280;46837;52.446;-1.930;2023-08-08T03:45:09;100186.05;;;13.34;72.98
60642;BME280;46837;52.446;-1.930;2023-08-08T03:46:09;100187.35;;;13.28;73.20
60642;BME280;46837;52.446;-1.930;2023-08-08T03:47:09;100183.45;;;13.30;73.18
60642;BME280;46837;52.446;-1.930;2023-08-08T03:48:09;100184.47;;;13.30;73.19
60642;BME280;46837;52.446;-1.930;2023-08-08T03:49:09;100181.89;;;13.31;73.20
60642;BME280;46837;52.446;-1.930;2023-08-08T03:50:09;100180.85;;;13.31;73.18
60642;BME280;46837;52.446;-1.930;2023-08-08T03:51:09;100175.57;;;13.33;73.04
60642;BME280;46837;52.446;-1.930;2023-08-08T03:52:09;100172.45;;;13.33;73.06
60642;BME280;46837;52.446;-1.930;2023-08-08T03:53:09;100168.36;;;13.34;73.03
60642;BME280;46837;52.446;-1.930;2023-08-08T03:54:09;100170.06;;;13.35;73.00
60642;BME280;46837;52.446;-1.930;2023-08-08T03:55:09;100169.32;;;13.33;73.19
60642;BME280;46837;52.446;-1.930;2023-08-08T03:56:09;100168.44;;;13.33;73.31
60642;BME280;46837;52.446;-1.930;2023-08-08T03:57:09;100168.74;;;13.35;73.20
60642;BME280;46837;52.446;-1.930;2023-08-08T03:58:09;100167.59;;;13.34;73.40
60642;BME280;46837;52.446;-1.930;2023-08-08T03:59:09;100167.59;;;13.36;73.34
60642;BME280;46837;52.446;-1.930;2023-08-08T04:00:10;100168.52;;;13.36;73.43
60642;BME280;46837;52.446;-1.930;2023-08-08T04:01:09;100165.01;;;13.42;73.22
60642;BME280;46837;52.446;-1.930;2023-08-08T04:02:09;100163.77;;;13.44;73.13
60642;BME280;46837;52.446;-1.930;2023-08-08T04:03:09;100159.32;;;13.44;73.23
60642;BME280;46837;52.446;-1.930;2023-08-08T04:04:09;100164.71;;;13.38;73.48
60642;BME280;46837;52.446;-1.930;2023-08-08T04:05:09;100167.56;;;13.40;73.55
60642;BME280;46837;52.446;-1.930;2023-08-08T04:06:09;100165.82;;;13.44;73.33
60642;BME280;46837;52.446;-1.930;2023-08-08T04:07:09;100170.19;;;13.47;73.22
60642;BME280;46837;52.446;-1.930;2023-08-08T04:08:09;100169.39;;;13.50;73.10
60642;BME280;46837;52.446;-1.930;2023-08-08T04:09:09;100169.39;;;13.50;73.18
60642;BME280;46837;52.446;-1.930;2023-08-08T04:10:09;100165.82;;;13.51;73.34
60642;BME280;46837;52.446;-1.930;2023-08-08T04:11:09;100173.20;;;13.54;73.15
60642;BME280;46837;52.446;-1.930;2023-08-08T04:12:09;100168.17;;;13.57;73.09
60642;BME280;46837;52.446;-1.930;2023-08-08T04:13:09;100169.41;;;13.59;73.08
60642;BME280;46837;52.446;-1.930;2023-08-08T04:14:09;100169.89;;;13.61;72.98
60642;BME280;46837;52.446;-1.930;2023-08-08T04:15:09;100169.48;;;13.64;72.92
60642;BME280;46837;52.446;-1.930;2023-08-08T04:16:09;100169.54;;;13.63;72.88
60642;BME280;46837;52.446;-1.930;2023-08-08T04:17:09;100168.35;;;13.67;72.84
60642;BME280;46837;52.446;-1.930;2023-08-08T04:18:09;100168.02;;;13.67;72.90
60642;BME280;46837;52.446;-1.930;2023-08-08T04:19:09;100161.60;;;13.66;72.97
60642;BME280;46837;52.446;-1.930;2023-08-08T04:20:09;100160.61;;;13.66;73.03
60642;BME280;46837;52.446;-1.930;2023-08-08T04:21:09;100159.74;;;13.60;73.23
60642;BME280;46837;52.446;-1.930;2023-08-08T04:22:09;100158.96;;;13.67;73.03
60642;BME280;46837;52.446;-1.930;2023-08-08T04:23:09;100162.77;;;13.69;72.95
60642;BME280;46837;52.446;-1.930;2023-08-08T04:24:10;100160.84;;;13.71;72.90
60642;BME280;46837;52.446;-1.930;2023-08-08T04:25:09;100166.57;;;13.75;72.73
60642;BME280;46837;52.446;-1.930;2023-08-08T04:26:09;100164.93;;;13.73;72.75
60642;BME280;46837;52.446;-1.930;2023-08-08T04:27:09;100164.66;;;13.73;72.82
60642;BME280;46837;52.446;-1.930;2023-08-08T04:28:09;100167.15;;;13.72;72.92
60642;BME280;46837;52.446;-1.930;2023-08-08T04:29:09;100165.03;;;13.75;72.91
60642;BME280;46837;52.446;-1.930;2023-08-08T04:30:09;100166.73;;;13.75;72.75
60642;BME280;46837;52.446;-1.930;2023-08-08T04:31:09;100161.21;;;13.76;72.70
60642;BME280;46837;52.446;-1.930;2023-08-08T04:32:09;100159.81;;;13.76;72.71
60642;BME280;46837;52.446;-1.930;2023-08-08T04:33:09;100156.43;;;13.79;72.66
60642;BME280;46837;52.446;-1.930;2023-08-08T04:34:09;100156.40;;;13.80;72.62
60642;BME280;46837;52.446;-1.930;2023-08-08T04:35:09;100151.97;;;13.83;72.38
60642;BME280;46837;52.446;-1.930;2023-08-08T04:36:09;100148.23;;;13.85;72.36
60642;BME280;46837;52.446;-1.930;2023-08-08T04:37:09;100144.29;;;13.88;72.24
60642;BME280;46837;52.446;-1.930;2023-08-08T04:38:09;100146.00;;;13.88;72.24
60642;BME280;46837;52.446;-1.930;2023-08-08T04:39:09;100142.52;;;13.84;72.50
60642;BME280;46837;52.446;-1.930;2023-08-08T04:40:09;100143.21;;;13.83;72.71
60642;BME280;46837;52.446;-1.930;2023-08-08T04:41:09;100148.11;;;13.86;72.59
60642;BME280;46837;52.446;-1.930;2023-08-08T04:42:09;100149.20;;;13.82;72.74
60642;BME280;46837;52.446;-1.930;2023-08-08T04:43:09;100151.78;;;13.82;72.78
60642;BME280;46837;52.446;-1.930;2023-08-08T04:44:09;100149.93;;;13.85;72.63
60642;BME280;46837;52.446;-1.930;2023-08-08T04:45:09;100153.35;;;13.89;72.52
60642;BME280;46837;52.446;-1.930;2023-08-08T04:46:09;100149.42;;;13.92;72.41
60642;BME280;46837;52.446;-1.930;2023-08-08T04:47:09;100152.99;;;13.91;72.37
60642;BME280;46837;52.446;-1.930;2023-08-08T04:48:09;100149.50;;;13.90;72.44
60642;BME280;46837;52.446;-1.930;2023-08-08T04:49:09;100146.89;;;13.92;72.48
60642;BME280;46837;52.446;-1.930;2023-08-08T04:50:09;100145.27;;;13.93;72.40
60642;BME280;46837;52.446;-1.930;2023-08-08T04:51:09;100141.25;;;13.94;72.41
60642;BME280;46837;52.446;-1.930;2023-08-08T04:52:09;100142.13;;;13.94;72.48
60642;BME280;46837;52.446;-1.930;2023-08-08T04:53:09;100142.15;;;13.97;72.31
60642;BME280;46837;52.446;-1.930;2023-08-08T04:54:09;100147.09;;;13.98;72.19
60642;BME280;46837;52.446;-1.930;2023-08-08T04:55:09;100147.15;;;13.98;72.28
60642;BME280;46837;52.446;-1.930;2023-08-08T04:56:09;100148.12;;;14.00;72.26
60642;BME280;46837;52.446;-1.930;2023-08-08T04:57:09;100144.28;;;14.00;72.24
60642;BME280;46837;52.446;-1.930;2023-08-08T04:58:09;100148.82;;;13.97;72.47
60642;BME280;46837;52.446;-1.930;2023-08-08T04:59:09;100148.16;;;13.97;72.53
60642;BME280;46837;52.446;-1.930;2023-08-08T05:00:11;100147.35;;;14.00;72.35
60642;BME280;46837;52.446;-1.930;2023-08-08T05:01:09;100147.16;;;14.02;72.25
60642;BME280;46837;52.446;-1.930;2023-08-08T05:02:09;100144.47;;;14.01;72.27
60642;BME280;46837;52.446;-1.930;2023-08-08T05:03:09;100145.01;;;14.02;72.27
60642;BME280;46837;52.446;-1.930;2023-08-08T05:04:09;100141.28;;;14.02;72.28
60642;BME280;46837;52.446;-1.930;2023-08-08T05:05:09;100142.70;;;14.03;72.24
60642;BME280;46837;52.446;-1.930;2023-08-08T05:06:09;100143.28;;;14.04;72.21
60642;BME280;46837;52.446;-1.930;2023-08-08T05:07:09;100142.60;;;14.07;72.11
60642;BME280;46837;52.446;-1.930;2023-08-08T05:08:09;100144.44;;;14.08;72.12
60642;BME280;46837;52.446;-1.930;2023-08-08T05:09:09;100145.82;;;14.08;72.15
60642;BME280;46837;52.446;-1.930;2023-08-08T05:10:09;100142.91;;;14.08;72.25
60642;BME280;46837;52.446;-1.930;2023-08-08T05:11:09;100142.80;;;14.07;72.26
60642;BME280;46837;52.446;-1.930;2023-08-08T05:12:09;100144.36;;;14.07;72.34